KASH/ASH METAR and TAF weather

Enter ICAO airport designator
Station Type Date Time Source
KASH METAR 2018/10/19 14:56 UTC NOAA

KASH 191456Z 27007KT 10SM CLR 09/01 A3015 RMK AO2 SLP222 T00940011 58021


Station Type Date Time Source
KASH Decoded METAR 2018/10/19 14:56 UTC NOAA

Nashua, Boire Field Airport, NH, United States (KASH) 42-46-54N 071-30-53W
Oct 19, 2018 - 10:56 AM EDT / 2018.10.19 1456 UTC
Wind: from the W (270 degrees) at 8 MPH (7 KT):0
Visibility: 10 mile(s):0
Sky conditions: clear
Temperature: 48.9 F (9.4 C)
Dew Point: 34.0 F (1.1 C)
Relative Humidity: 56%
Pressure (altimeter): 30.15 in. Hg (1020 hPa)
Pressure tendency: 0.06 inches (2.1 hPa) lower than three hours ago
ob: KASH 191456Z 27007KT 10SM CLR 09/01 A3015 RMK AO2 SLP222 T00940011 58021
cycle: 15

Station Type Date Time Source
KASH TAF UTC NOAA

Error!


Example: see airport list